TimeCST,TemperatureF,Dew PointF,Humidity,Sea Level PressureIn,VisibilityMPH,Wind Direction,Wind SpeedMPH,Gust SpeedMPH,PrecipitationIn,Events,Conditions,WindDirDegrees,DateUTC
12:15 AM,55.4,44.1,66,29.72,10.0,South,10.4,-,N/A,,Scattered Clouds,170,2013-01-12 06:15:00
12:35 AM,55.8,44.1,65,29.75,10.0,South,9.2,-,N/A,,Mostly Cloudy,190,2013-01-12 06:35:00
12:55 AM,55.9,43.7,63,29.75,10.0,South,5.8,-,N/A,,Scattered Clouds,190,2013-01-12 06:55:00
1:15 AM,55.4,43.7,65,29.76,10.0,South,9.2,-,N/A,,Clear,170,2013-01-12 07:15:00
1:35 AM,55.4,43.9,65,29.77,10.0,South,6.9,-,N/A,,Scattered Clouds,180,2013-01-12 07:35:00
1:55 AM,55.6,44.1,65,29.78,10.0,SSW,5.8,-,N/A,,Clear,210,2013-01-12 07:55:00
2:15 AM,57.7,44.2,61,29.80,10.0,SW,12.7,18.4,N/A,,Scattered Clouds,220,2013-01-12 08:15:00
2:35 AM,59.0,44.2,58,29.80,10.0,SW,8.1,17.3,N/A,,Scattered Clouds,230,2013-01-12 08:35:00
2:55 AM,58.6,44.4,59,29.82,10.0,SW,6.9,-,N/A,,Mostly Cloudy,230,2013-01-12 08:55:00
3:15 AM,58.3,44.2,60,29.83,10.0,WSW,9.2,-,N/A,,Overcast,250,2013-01-12 09:15:00
3:35 AM,58.1,41.9,55,29.83,10.0,West,9.2,18.4,N/A,,Overcast,270,2013-01-12 09:35:00
3:55 AM,57.2,36.3,46,29.84,10.0,WNW,10.4,-,N/A,,Overcast,290,2013-01-12 09:55:00
4:15 AM,54.3,33.1,45,29.85,10.0,WNW,9.2,-,N/A,,Scattered Clouds,300,2013-01-12 10:15:00
4:35 AM,52.3,28.2,39,29.85,7.0,WNW,9.2,17.3,N/A,,Clear,290,2013-01-12 10:35:00
4:55 AM,51.3,27.3,40,29.86,7.0,WNW,13.8,19.6,N/A,,Mostly Cloudy,300,2013-01-12 10:55:00
5:15 AM,47.5,31.3,53,29.90,7.0,WNW,16.1,20.7,N/A,,Overcast,300,2013-01-12 11:15:00
5:35 AM,43.9,32.9,65,29.92,10.0,WNW,13.8,21.9,N/A,,Mostly Cloudy,290,2013-01-12 11:35:00
5:55 AM,41.7,33.3,72,29.93,10.0,West,10.4,18.4,N/A,,Mostly Cloudy,280,2013-01-12 11:55:00
6:15 AM,40.1,32.9,75,29.94,10.0,WNW,11.5,17.3,N/A,,Scattered Clouds,290,2013-01-12 12:15:00
6:35 AM,38.8,31.8,76,29.94,10.0,WNW,11.5,18.4,N/A,,Scattered Clouds,300,2013-01-12 12:35:00
6:55 AM,38.3,31.6,77,29.95,10.0,NW,11.5,-,N/A,,Scattered Clouds,310,2013-01-12 12:55:00
7:15 AM,37.9,30.9,76,29.97,10.0,NW,11.5,17.3,N/A,,Scattered Clouds,310,2013-01-12 13:15:00
7:35 AM,36.9,29.5,75,29.98,10.0,NW,9.2,17.3,N/A,,Mostly Cloudy,310,2013-01-12 13:35:00
7:55 AM,36.1,28.9,75,29.98,10.0,NW,11.5,18.4,N/A,,Scattered Clouds,320,2013-01-12 13:55:00
8:15 AM,35.6,28.9,77,30.01,10.0,NW,4.6,16.1,N/A,,Scattered Clouds,320,2013-01-12 14:15:00
8:35 AM,35.4,26.2,69,30.02,10.0,NNW,15.0,-,N/A,,Scattered Clouds,340,2013-01-12 14:35:00
8:55 AM,34.3,21.7,60,30.04,10.0,NW,11.5,-,N/A,,Clear,320,2013-01-12 14:55:00
9:15 AM,33.8,21.2,60,30.06,10.0,NW,9.2,-,N/A,,Scattered Clouds,310,2013-01-12 15:15:00
9:35 AM,33.8,21.2,60,30.05,10.0,NNW,10.4,-,N/A,,Mostly Cloudy,330,2013-01-12 15:35:00
9:55 AM,33.8,20.7,59,30.04,10.0,NW,12.7,18.4,N/A,,Scattered Clouds,320,2013-01-12 15:55:00
10:15 AM,33.6,20.3,58,30.04,10.0,NW,12.7,17.3,N/A,,Clear,320,2013-01-12 16:15:00
10:35 AM,33.4,20.1,58,30.04,10.0,NNW,13.8,-,N/A,,Clear,330,2013-01-12 16:35:00
10:55 AM,33.1,20.3,59,30.06,10.0,NW,9.2,-,N/A,,Clear,320,2013-01-12 16:55:00
11:15 AM,33.1,20.3,59,30.05,10.0,NW,10.4,-,N/A,,Clear,320,2013-01-12 17:15:00
11:35 AM,33.1,18.9,56,30.03,10.0,NNW,10.4,-,N/A,,Mostly Cloudy,330,2013-01-12 17:35:00
11:55 AM,33.8,19.4,56,30.01,10.0,North,10.4,-,N/A,,Overcast,360,2013-01-12 17:55:00
12:15 PM,34.2,19.4,55,30.01,10.0,NW,9.2,-,N/A,,Overcast,310,2013-01-12 18:15:00
12:35 PM,33.8,18.9,54,30.00,10.0,NNW,9.2,-,N/A,,Overcast,330,2013-01-12 18:35:00
12:55 PM,33.8,18.5,54,30.00,10.0,NW,5.8,-,N/A,,Overcast,310,2013-01-12 18:55:00
1:15 PM,34.0,18.5,53,30.01,10.0,North,4.6,-,N/A,,Overcast,350,2013-01-12 19:15:00
1:35 PM,33.8,17.6,52,30.01,10.0,North,8.1,-,N/A,,Overcast,350,2013-01-12 19:35:00
1:55 PM,33.8,17.6,52,30.03,10.0,NW,8.1,-,N/A,,Overcast,310,2013-01-12 19:55:00
2:15 PM,33.8,18.5,54,30.01,10.0,NNW,8.1,-,N/A,,Overcast,340,2013-01-12 20:15:00
2:35 PM,33.1,18.3,55,29.98,10.0,NNW,11.5,-,N/A,,Overcast,340,2013-01-12 20:35:00
2:55 PM,32.4,18.9,58,29.96,10.0,North,12.7,17.3,N/A,,Overcast,350,2013-01-12 20:55:00
3:15 PM,32.2,19.2,59,29.98,10.0,NNW,9.2,-,N/A,,Overcast,340,2013-01-12 21:15:00
3:35 PM,31.8,19.4,60,29.98,10.0,NNW,9.2,-,N/A,,Overcast,340,2013-01-12 21:35:00
3:55 PM,31.3,20.1,63,29.98,10.0,NNW,10.4,-,N/A,,Overcast,340,2013-01-12 21:55:00
4:15 PM,30.9,19.8,63,29.96,10.0,NNW,11.5,20.7,N/A,,Overcast,340,2013-01-12 22:15:00
4:35 PM,30.6,20.5,66,29.99,7.0,NNW,11.5,-,N/A,Snow,Light Snow,340,2013-01-12 22:35:00
4:55 PM,30.2,23.0,75,30.00,5.0,NW,8.1,-,0.01,Snow,Light Snow,320,2013-01-12 22:55:00
5:15 PM,30.2,24.6,80,30.01,5.0,NW,8.1,-,0.01,Snow,Light Snow,320,2013-01-12 23:15:00
5:35 PM,30.2,25.3,82,30.00,7.0,NNW,9.2,-,0.02,Snow,Light Snow,330,2013-01-12 23:35:00
5:55 PM,29.8,25.0,82,29.99,7.0,NNW,11.5,-,0.02,Snow,Light Snow,330,2013-01-12 23:55:00
6:15 PM,29.3,25.9,87,29.98,5.0,NNW,13.8,20.7,0.01,Snow,Light Snow,330,2013-01-13 00:15:00
6:35 PM,28.8,27.3,94,29.94,2.0,NNW,17.3,23.0,0.02,Snow,Light Snow,340,2013-01-13 00:35:00
6:55 PM,28.4,27.3,96,29.96,5.0,NNW,10.4,-,0.03,Snow,Light Snow,340,2013-01-13 00:55:00
7:15 PM,28.4,27.0,94,29.94,4.0,NNW,15.0,19.6,0.01,Snow,Light Snow,340,2013-01-13 01:15:00
7:35 PM,27.9,26.6,95,29.98,3.0,NNW,12.7,17.3,0.03,,Overcast,330,2013-01-13 01:35:00
7:55 PM,27.7,26.4,95,30.00,3.0,NW,9.2,-,0.04,Snow,Light Snow,320,2013-01-13 01:55:00
8:15 PM,27.3,25.9,94,30.02,2.0,NW,6.9,-,0.01,Snow,Light Snow,310,2013-01-13 02:15:00
8:35 PM,27.0,26.1,96,30.00,2.5,NNW,8.1,-,0.01,Snow,Light Snow,330,2013-01-13 02:35:00
8:55 PM,27.0,26.1,96,30.01,4.0,NW,9.2,-,0.01,Snow,Light Snow,320,2013-01-13 02:55:00
9:15 PM,26.8,25.7,96,30.01,4.0,NNW,9.2,-,N/A,Snow,Light Snow,330,2013-01-13 03:15:00
9:35 PM,26.4,25.0,94,29.99,3.0,NNW,11.5,18.4,N/A,Snow,Light Snow,340,2013-01-13 03:35:00
9:55 PM,26.2,24.8,94,30.00,2.5,NNW,8.1,16.1,N/A,Snow,Light Snow,330,2013-01-13 03:55:00
10:35 PM,26.2,24.6,94,30.01,10.0,NNW,6.9,-,N/A,,Overcast,340,2013-01-13 04:35:00
10:55 PM,26.4,24.4,92,29.99,10.0,North,9.2,-,N/A,,Overcast,350,2013-01-13 04:55:00
11:35 PM,26.2,23.5,90,30.01,10.0,NNW,9.2,16.1,N/A,,Overcast,330,2013-01-13 05:35:00
11:55 PM,26.1,23.0,88,30.02,10.0,NNW,9.2,-,N/A,,Overcast,340,2013-01-13 05:55:00